Harle — ZCTV4 — position and weather

sailwx.info

Track history (hours):
 
Tides and Currents Weather Stations Pressure Air Temp Water Temp Dewpoint Dewpoint Depression Visibility Wind Speed Wind Dir Waves Ship Positions

Harle

Last reported at 2017-Sep-13 17:59 UTC. Time now 2017-Oct-23 06:24 UTC.
Position N 42°33' E 004°36'.
Warning: this ship's position is 39 days out of date.

Length 45 m; draft 2.7 m.

Type: Pleasure craft. MMSI: 319323000.

Date/timePositionNaut miles runAvg speedWind from/ knotsBaromVisibWave heightAir tempDewpointWater temp
2017-Sep-13 17:59N 42°33' E 004°36'711.4
2017-Sep-13 17:23N 42°36' E 004°44'411.2
2017-Sep-13 17:00N 42°38' E 004°49'711.0
2017-Sep-13 16:22N 42°42' E 004°57'510.8
2017-Sep-13 15:57N 42°44' E 005°03'2411.1
2017-Sep-13 13:46N 42°55' E 005°32'311.0
2017-Sep-13 13:30N 42°56' E 005°36'510.7
2017-Sep-13 13:00N 42°57' E 005°43'5 9.9
2017-Sep-13 12:30N 42°58' E 005°50'56 9.3
2017-Sep-13 06:32N 43°22' E 006°58'110.9
2017-Sep-13 06:28N 43°23' E 006°59'511.1
2017-Sep-13 06:01N 43°26' E 007°04'611.7
2017-Sep-13 05:31N 43°31' E 007°09'611.3
2017-Sep-13 05:00N 43°35' E 007°14'  
2017-Sep-06 04:58N 42°53' E 009°48'1910.6
2017-Sep-06 03:09N 42°41' E 010°08'210.9
2017-Sep-06 03:00N 42°40' E 010°10'510.5
2017-Sep-06 02:30N 42°36' E 010°15'610.5
2017-Sep-06 01:55N 42°32' E 010°21'510.8
2017-Sep-06 01:27N 42°28' E 010°26'610.8
2017-Sep-06 00:54N 42°24' E 010°32'410.5
2017-Sep-06 00:30N 42°22' E 010°36'510.6
2017-Sep-05 23:59N 42°19' E 010°42'18210.4
2017-Sep-05 06:32N 40°47' E 014°11'110.8
2017-Sep-05 06:29N 40°47' E 014°12'3 0.1
2017-Sep-04 09:08N 40°50' E 014°14'0 0.0
2017-Sep-04 08:56N 40°50' E 014°14'0 0.0
2017-Sep-04 08:26N 40°50' E 014°14'0 0.0
2017-Sep-04 07:56N 40°50' E 014°14'0 0.0
2017-Sep-04 07:26N 40°50' E 014°14'0 0.0
2017-Sep-04 06:56N 40°50' E 014°14'0 0.0
2017-Sep-03 19:26N 40°50' E 014°14'0 0.0
2017-Sep-03 18:38N 40°50' E 014°14'0 0.0
2017-Sep-03 18:14N 40°50' E 014°14'  
Track history (hours):
 
Tides and Currents Weather Stations Pressure Air Temp Water Temp Dewpoint Dewpoint Depression Visibility Wind Speed Wind Dir Waves Ship Positions

Harle

Last reported at 2017-Sep-13 17:59 UTC. Time now 2017-Oct-23 06:24 UTC.
Position N 42°33' E 004°36'.
Warning: this ship's position is 39 days out of date.

Length 45 m; draft 2.7 m.

Type: Pleasure craft. MMSI: 319323000.

Date/timePositionNaut miles runAvg speedWind from/ knotsBaromVisibWave heightAir tempDewpointWater temp
2017-Sep-13 17:59N 42°33' E 004°36'711.4
2017-Sep-13 17:23N 42°36' E 004°44'411.2
2017-Sep-13 17:00N 42°38' E 004°49'711.0
2017-Sep-13 16:22N 42°42' E 004°57'510.8
2017-Sep-13 15:57N 42°44' E 005°03'2411.1
2017-Sep-13 13:46N 42°55' E 005°32'311.0
2017-Sep-13 13:30N 42°56' E 005°36'510.7
2017-Sep-13 13:00N 42°57' E 005°43'5 9.9
2017-Sep-13 12:30N 42°58' E 005°50'56 9.3
2017-Sep-13 06:32N 43°22' E 006°58'110.9
2017-Sep-13 06:28N 43°23' E 006°59'511.1
2017-Sep-13 06:01N 43°26' E 007°04'611.7
2017-Sep-13 05:31N 43°31' E 007°09'611.3
2017-Sep-13 05:00N 43°35' E 007°14'  
2017-Sep-06 04:58N 42°53' E 009°48'1910.6
2017-Sep-06 03:09N 42°41' E 010°08'210.9
2017-Sep-06 03:00N 42°40' E 010°10'510.5
2017-Sep-06 02:30N 42°36' E 010°15'610.5
2017-Sep-06 01:55N 42°32' E 010°21'510.8
2017-Sep-06 01:27N 42°28' E 010°26'610.8
2017-Sep-06 00:54N 42°24' E 010°32'410.5
2017-Sep-06 00:30N 42°22' E 010°36'510.6
2017-Sep-05 23:59N 42°19' E 010°42'18210.4
2017-Sep-05 06:32N 40°47' E 014°11'110.8
2017-Sep-05 06:29N 40°47' E 014°12'3 0.1
2017-Sep-04 09:08N 40°50' E 014°14'0 0.0
2017-Sep-04 08:56N 40°50' E 014°14'0 0.0
2017-Sep-04 08:26N 40°50' E 014°14'0 0.0
2017-Sep-04 07:56N 40°50' E 014°14'0 0.0
2017-Sep-04 07:26N 40°50' E 014°14'0 0.0
2017-Sep-04 06:56N 40°50' E 014°14'0 0.0
2017-Sep-03 19:26N 40°50' E 014°14'0 0.0
2017-Sep-03 18:38N 40°50' E 014°14'0 0.0
2017-Sep-03 18:14N 40°50' E 014°14'  

Dump ship's entire track history